Time;durP1;ratioP1;P1;durP2;ratioP2;P2;SDS_P1;SDS_P2;PMS_P1;PMS_P2;Temp;Humidity;BMP_temperature;BMP_pressure;BME280_temperature;BME280_humidity;BME280_pressure;Samples;Min_cycle;Max_cycle;Signal;HPM_P1;HPM_P2
2021/04/14 00:01:47;;;;;;;9.90;7.07;;;1.30;99.20;;;;;;5031677;28;20233;-67
2021/04/14 00:04:14;;;;;;;6.17;3.77;;;1.30;99.50;;;;;;5031593;28;20209;-66
2021/04/14 00:06:41;;;;;;;4.47;3.43;;;1.30;99.50;;;;;;5031253;28;20238;-63
2021/04/14 00:09:08;;;;;;;5.30;3.80;;;1.30;99.50;;;;;;5031446;28;20206;-63
2021/04/14 00:11:34;;;;;;;6.93;4.40;;;1.30;99.50;;;;;;5031402;28;20256;-67
2021/04/14 00:14:00;;;;;;;12.60;9.10;;;1.20;99.80;;;;;;5031512;28;20261;-63
2021/04/14 00:16:27;;;;;;;9.67;5.97;;;1.20;99.90;;;;;;5031089;28;20222;-63
2021/04/14 00:18:54;;;;;;;7.67;5.60;;;1.20;99.80;;;;;;5031362;28;20210;-64
2021/04/14 00:21:24;;;;;;;5.03;3.90;;;1.20;99.80;;;;;;5031422;28;20202;-62
2021/04/14 00:23:52;;;;;;;7.03;4.70;;;1.20;99.70;;;;;;5031401;28;20233;-66
2021/04/14 00:26:19;;;;;;;16.20;9.50;;;1.20;99.50;;;;;;5031001;28;20241;-66
2021/04/14 00:28:45;;;;;;;8.90;5.13;;;1.20;99.60;;;;;;5031174;28;20301;-63
2021/04/14 00:31:12;;;;;;;5.90;4.30;;;1.10;99.80;;;;;;5031448;28;20213;-64
2021/04/14 00:33:39;;;;;;;6.77;4.00;;;1.10;99.90;;;;;;5031063;28;20692;-65
2021/04/14 00:36:05;;;;;;;3.77;2.80;;;1.00;99.90;;;;;;5030939;28;20226;-63
2021/04/14 00:38:32;;;;;;;4.07;2.80;;;0.90;99.90;;;;;;5031266;28;20206;-62
2021/04/14 00:41:02;;;;;;;2.90;2.50;;;0.90;99.90;;;;;;5030941;28;20214;-63
2021/04/14 00:43:31;;;;;;;3.97;2.53;;;0.90;99.90;;;;;;5031499;28;20209;-63
2021/04/14 00:45:59;;;;;;;2.73;2.23;;;0.90;99.90;;;;;;5035173;28;20230;-64
2021/04/14 00:48:25;;;;;;;6.17;5.00;;;1.00;99.90;;;;;;5034663;28;20214;-62
2021/04/14 00:50:52;;;;;;;5.27;2.90;;;1.00;99.90;;;;;;5034955;28;20742;-63
2021/04/14 00:53:19;;;;;;;4.00;2.83;;;1.00;99.90;;;;;;5034940;28;20210;-64
2021/04/14 00:55:47;;;;;;;5.00;3.50;;;1.00;99.90;;;;;;5034854;28;20222;-63
2021/04/14 00:58:14;;;;;;;4.63;3.07;;;1.00;99.90;;;;;;5034801;28;20697;-63
2021/04/14 01:00:42;;;;;;;4.43;3.13;;;1.00;99.90;;;;;;5035016;28;20724;-63
2021/04/14 01:03:15;;;;;;;3.17;2.80;;;1.00;99.90;;;;;;5034918;28;20213;-66
2021/04/14 01:05:43;;;;;;;3.00;2.70;;;1.00;99.90;;;;;;5034722;28;20230;-63
2021/04/14 01:08:10;;;;;;;6.03;2.60;;;1.10;99.90;;;;;;5034758;28;20206;-62
2021/04/14 01:10:36;;;;;;;5.67;2.40;;;1.20;99.90;;;;;;5034809;28;20210;-63
2021/04/14 01:13:05;;;;;;;5.47;2.70;;;1.20;99.90;;;;;;5035274;28;20210;-63
2021/04/14 01:15:34;;;;;;;9.30;4.47;;;1.10;99.90;;;;;;5034839;28;20226;-62
2021/04/14 01:18:01;;;;;;;5.33;3.40;;;1.00;99.90;;;;;;5034688;28;20206;-66
2021/04/14 01:20:28;;;;;;;4.33;2.80;;;0.90;99.90;;;;;;5034561;28;20253;-65
2021/04/14 01:22:55;;;;;;;3.70;2.60;;;0.90;99.90;;;;;;5034452;28;20558;-63
2021/04/14 01:25:30;;;;;;;4.57;3.40;;;0.80;99.90;;;;;;5033994;28;20238;-63
2021/04/14 01:27:56;;;;;;;6.10;3.57;;;0.70;99.90;;;;;;5034434;28;20209;-63
2021/04/14 01:30:26;;;;;;;8.10;3.93;;;0.60;99.90;;;;;;5034343;28;20221;-63
2021/04/14 01:32:53;;;;;;;3.20;2.63;;;0.60;99.90;;;;;;5033908;28;20211;-63
2021/04/14 01:35:23;;;;;;;7.23;3.47;;;0.50;99.90;;;;;;5033984;28;20225;-65
2021/04/14 01:37:50;;;;;;;4.10;2.70;;;0.40;99.90;;;;;;5033939;28;20206;-64
2021/04/14 01:40:19;;;;;;;3.30;2.17;;;0.50;99.90;;;;;;5034200;28;20206;-63
2021/04/14 01:42:45;;;;;;;3.63;2.47;;;0.50;99.90;;;;;;5033934;28;20678;-65
2021/04/14 01:45:14;;;;;;;3.93;2.47;;;0.50;99.90;;;;;;5033457;28;20229;-64
2021/04/14 01:47:41;;;;;;;4.23;2.60;;;0.40;99.90;;;;;;5033689;28;20213;-63
2021/04/14 01:50:09;;;;;;;3.13;2.60;;;0.40;99.90;;;;;;5033975;28;20210;-63
2021/04/14 01:52:36;;;;;;;5.50;2.37;;;0.50;99.90;;;;;;5033919;28;20206;-63
2021/04/14 01:55:05;;;;;;;3.43;2.40;;;0.50;99.90;;;;;;5033176;28;20256;-63
2021/04/14 01:57:32;;;;;;;3.43;2.30;;;0.50;99.90;;;;;;5033812;28;20206;-63
2021/04/14 01:59:58;;;;;;;2.90;2.20;;;0.40;99.90;;;;;;5033718;28;20206;-62
2021/04/14 02:02:24;;;;;;;3.80;2.60;;;0.30;99.90;;;;;;5033654;28;20213;-62
2021/04/14 02:04:51;;;;;;;2.60;1.93;;;0.40;99.90;;;;;;5033139;28;20218;-66
2021/04/14 02:07:17;;;;;;;3.37;2.10;;;0.30;99.90;;;;;;5033450;28;20234;-62
2021/04/14 02:09:44;;;;;;;2.60;2.33;;;0.30;99.90;;;;;;5033553;28;20217;-63
2021/04/14 02:12:11;;;;;;;3.53;2.20;;;0.30;99.90;;;;;;5033334;28;20213;-63
2021/04/14 02:14:38;;;;;;;3.00;2.30;;;0.30;99.90;;;;;;5033405;28;20216;-63
2021/04/14 02:17:05;;;;;;;3.90;2.20;;;0.40;99.90;;;;;;5033304;28;20233;-62
2021/04/14 02:19:31;;;;;;;5.33;2.20;;;0.40;99.90;;;;;;5033152;28;20261;-62
2021/04/14 02:21:57;;;;;;;3.43;2.50;;;0.30;99.90;;;;;;5033402;28;20222;-62
2021/04/14 02:24:23;;;;;;;4.50;2.30;;;0.30;99.90;;;;;;5032863;28;20244;-65
2021/04/14 02:26:49;;;;;;;5.67;2.13;;;0.30;99.90;;;;;;5033081;28;20466;-63
2021/04/14 02:29:16;;;;;;;4.73;2.20;;;0.20;99.90;;;;;;5032821;28;20209;-65
2021/04/14 02:31:43;;;;;;;4.00;2.80;;;0.20;99.90;;;;;;5032996;28;20202;-66
2021/04/14 02:34:12;;;;;;;3.67;2.57;;;0.20;99.90;;;;;;5033267;28;20206;-63
2021/04/14 02:36:39;;;;;;;4.50;2.73;;;0.20;99.90;;;;;;5033287;28;20218;-63
2021/04/14 02:39:08;;;;;;;5.50;2.63;;;0.30;99.90;;;;;;5033429;28;20210;-63
2021/04/14 02:41:34;;;;;;;6.23;3.07;;;0.20;99.90;;;;;;5033232;28;20211;-66
2021/04/14 02:44:00;;;;;;;6.53;3.57;;;0.30;99.90;;;;;;5032780;28;20714;-64
2021/04/14 02:46:27;;;;;;;9.03;4.20;;;0.30;99.90;;;;;;5032719;28;20227;-63
2021/04/14 02:48:54;;;;;;;5.77;3.17;;;0.30;99.90;;;;;;5033003;28;20217;-63
2021/04/14 02:51:20;;;;;;;7.23;3.43;;;0.30;99.90;;;;;;5033640;28;20206;-62
2021/04/14 02:53:47;;;;;;;5.00;3.03;;;0.40;99.90;;;;;;5034496;28;20206;-63
2021/04/14 02:56:13;;;;;;;5.63;3.20;;;0.40;99.90;;;;;;5033082;28;20222;-64
2021/04/14 02:58:39;;;;;;;6.17;3.50;;;0.40;99.90;;;;;;5033046;28;20705;-63
2021/04/14 03:01:06;;;;;;;6.47;3.57;;;0.50;99.90;;;;;;5032563;28;20221;-63
2021/04/14 03:03:32;;;;;;;7.47;4.00;;;0.50;99.90;;;;;;5032985;28;20216;-63
2021/04/14 03:05:59;;;;;;;6.63;3.30;;;0.50;99.90;;;;;;5055060;22;21318;-63
2021/04/14 03:08:25;;;;;;;6.57;3.40;;;0.50;99.90;;;;;;5072175;28;20216;-63
2021/04/14 03:10:51;;;;;;;5.90;3.07;;;0.50;99.90;;;;;;5072634;28;20201;-63
2021/04/14 03:13:18;;;;;;;6.90;3.17;;;0.50;99.90;;;;;;5072376;28;20212;-63
2021/04/14 03:15:44;;;;;;;6.33;2.50;;;0.40;99.90;;;;;;5071609;28;20252;-64
2021/04/14 03:18:15;;;;;;;3.27;2.60;;;0.20;99.90;;;;;;5071842;28;20277;-62
2021/04/14 03:20:43;;;;;;;4.33;2.50;;;0.20;99.90;;;;;;5071878;28;20200;-63
2021/04/14 03:23:11;;;;;;;3.80;2.43;;;0.20;99.90;;;;;;5071673;28;20212;-62
2021/04/14 03:25:38;;;;;;;2.97;2.37;;;0.20;99.90;;;;;;5071399;28;20466;-63
2021/04/14 03:28:05;;;;;;;3.37;2.40;;;0.10;99.90;;;;;;5071390;28;20213;-64
2021/04/14 03:30:33;;;;;;;2.73;2.47;;;0.00;99.90;;;;;;5071688;28;20204;-63
2021/04/14 03:33:00;;;;;;;3.60;2.23;;;0.00;99.90;;;;;;5071710;28;20212;-63
2021/04/14 03:35:28;;;;;;;5.03;2.20;;;0.00;99.90;;;;;;5071353;28;20201;-62
2021/04/14 03:37:54;;;;;;;3.70;2.47;;;0.00;99.90;;;;;;5071354;28;20207;-63
2021/04/14 03:40:22;;;;;;;5.40;3.20;;;0.00;99.90;;;;;;5071558;28;20270;-63
2021/04/14 03:42:50;;;;;;;4.33;2.50;;;0.00;99.90;;;;;;5071223;28;20695;-63
2021/04/14 03:45:21;;;;;;;5.17;2.97;;;0.00;99.90;;;;;;5071381;28;20321;-64
2021/04/14 03:47:47;;;;;;;7.73;4.60;;;-0.10;99.90;;;;;;5071254;28;20221;-63
2021/04/14 03:50:17;;;;;;;4.20;3.33;;;-0.10;99.90;;;;;;5071333;28;20262;-61
2021/04/14 03:52:43;;;;;;;4.33;2.70;;;-0.10;99.90;;;;;;5071267;28;20205;-62
2021/04/14 03:55:11;;;;;;;6.53;4.27;;;-0.20;99.90;;;;;;5071554;28;20200;-62
2021/04/14 03:57:38;;;;;;;5.40;3.37;;;-0.20;99.90;;;;;;5071345;28;20228;-63
2021/04/14 04:00:07;;;;;;;4.70;3.60;;;-0.20;99.90;;;;;;5071236;28;20208;-62
2021/04/14 04:02:33;;;;;;;3.53;2.57;;;-0.10;99.90;;;;;;5073091;28;20205;-62
2021/04/14 04:04:59;;;;;;;5.20;2.83;;;-0.10;99.90;;;;;;5073022;28;20205;-62
2021/04/14 04:07:26;;;;;;;8.20;4.97;;;-0.20;99.90;;;;;;5073193;28;20233;-62
2021/04/14 04:09:52;;;;;;;6.20;3.60;;;-0.10;99.90;;;;;;5071127;28;20211;-62
2021/04/14 04:12:19;;;;;;;5.93;3.60;;;-0.10;99.90;;;;;;5070995;28;20211;-62
2021/04/14 04:14:48;;;;;;;9.77;4.63;;;-0.10;99.90;;;;;;5070763;28;20240;-62
2021/04/14 04:17:14;;;;;;;8.27;3.97;;;0.00;99.90;;;;;;5070736;28;20256;-62
2021/04/14 04:19:41;;;;;;;6.87;3.70;;;-0.10;99.90;;;;;;5070878;28;20293;-62
2021/04/14 04:22:08;;;;;;;9.50;4.73;;;0.00;99.90;;;;;;5070754;28;20687;-62
2021/04/14 04:24:34;;;;;;;4.60;3.30;;;0.00;99.90;;;;;;5070873;28;20204;-62
2021/04/14 04:27:00;;;;;;;7.07;3.50;;;0.10;99.90;;;;;;5070796;28;20229;-62
2021/04/14 04:29:26;;;;;;;7.67;3.03;;;0.10;99.90;;;;;;5070709;28;20205;-62
2021/04/14 04:31:54;;;;;;;5.07;3.10;;;0.10;99.90;;;;;;5070660;28;20610;-62
2021/04/14 04:34:20;;;;;;;7.87;4.10;;;0.10;99.90;;;;;;5070668;28;20635;-63
2021/04/14 04:36:46;;;;;;;8.23;5.23;;;0.10;99.90;;;;;;5070614;28;20236;-63
2021/04/14 04:39:12;;;;;;;8.50;3.57;;;0.00;99.90;;;;;;5070856;28;20201;-63
2021/04/14 04:41:38;;;;;;;5.50;4.07;;;0.00;99.90;;;;;;5070944;28;20208;-63
2021/04/14 04:44:05;;;;;;;5.93;3.47;;;0.00;99.90;;;;;;5070642;28;20209;-63
2021/04/14 04:46:31;;;;;;;8.33;6.00;;;0.00;99.90;;;;;;5070497;28;20235;-62
2021/04/14 04:48:58;;;;;;;5.30;3.27;;;-0.10;99.90;;;;;;5070348;28;20221;-62
2021/04/14 04:51:24;;;;;;;7.83;3.27;;;-0.10;99.90;;;;;;5070325;28;20254;-62
2021/04/14 04:53:50;;;;;;;5.83;3.43;;;-0.10;99.90;;;;;;5070349;28;20684;-63
2021/04/14 04:56:17;;;;;;;3.80;3.10;;;-0.10;99.90;;;;;;5070505;28;20229;-62
2021/04/14 04:58:43;;;;;;;5.20;3.63;;;-0.10;99.90;;;;;;5070424;28;20208;-62
2021/04/14 05:01:10;;;;;;;7.40;3.83;;;0.00;99.90;;;;;;5070622;28;20208;-62
2021/04/14 05:03:36;;;;;;;4.67;3.00;;;0.10;99.90;;;;;;5071203;28;20200;-62
2021/04/14 05:06:04;;;;;;;5.03;3.03;;;0.20;99.90;;;;;;5070913;28;20244;-62
2021/04/14 05:08:30;;;;;;;6.33;3.60;;;0.20;99.90;;;;;;5070779;28;20205;-62
2021/04/14 05:10:57;;;;;;;3.53;2.90;;;0.20;99.90;;;;;;5070844;28;20471;-61
2021/04/14 05:13:24;;;;;;;4.13;2.90;;;0.20;99.90;;;;;;5070350;28;20208;-62
2021/04/14 05:15:50;;;;;;;6.43;3.03;;;0.40;99.90;;;;;;5070140;28;20240;-61
2021/04/14 05:18:17;;;;;;;3.90;2.80;;;0.50;99.90;;;;;;5070205;28;20669;-61
2021/04/14 05:20:44;;;;;;;4.47;3.30;;;0.70;99.90;;;;;;5070232;28;20669;-62
2021/04/14 05:23:12;;;;;;;6.00;3.30;;;0.90;99.90;;;;;;5070440;28;20558;-62
2021/04/14 05:25:40;;;;;;;3.97;2.70;;;1.00;99.90;;;;;;5070529;28;20197;-62
2021/04/14 05:28:09;;;;;;;4.20;3.30;;;1.30;99.90;;;;;;5071062;28;20237;-61
2021/04/14 05:30:36;;;;;;;4.90;3.07;;;1.50;99.90;;;;;;5074308;28;20200;-62
2021/04/14 05:33:03;;;;;;;7.97;3.40;;;1.60;99.90;;;;;;5075352;28;20729;-61
2021/04/14 05:35:29;;;;;;;5.60;3.43;;;1.90;99.90;;;;;;5074722;28;20235;-61
2021/04/14 05:37:55;;;;;;;7.53;3.60;;;2.10;99.50;;;;;;5075264;28;20209;-62
2021/04/14 05:40:23;;;;;;;4.97;3.47;;;2.30;98.90;;;;;;5074350;28;20231;-62
2021/04/14 05:42:50;;;;;;;5.53;3.47;;;2.70;98.40;;;;;;5074550;28;20209;-63
2021/04/14 05:45:22;;;;;;;6.00;3.00;;;4.00;96.90;;;;;;5074672;28;20216;-63
2021/04/14 05:47:48;;;;;;;8.07;3.97;;;5.50;93.70;;;;;;5074705;28;20209;-61
2021/04/14 05:50:17;;;;;;;6.97;3.03;;;6.70;91.70;;;;;;5074381;28;20676;-61
2021/04/14 05:52:44;;;;;;;5.60;3.17;;;7.80;88.60;;;;;;5074379;28;20209;-61
2021/04/14 05:55:11;;;;;;;5.23;2.93;;;8.80;84.20;;;;;;5074052;28;20232;-61
2021/04/14 05:57:38;;;;;;;6.67;3.00;;;9.90;80.10;;;;;;5074067;28;20648;-61
2021/04/14 06:00:06;;;;;;;5.00;3.00;;;11.30;74.50;;;;;;5073594;28;20205;-62
2021/04/14 06:02:33;;;;;;;6.17;3.43;;;12.60;67.10;;;;;;5074498;28;20205;-63
2021/04/14 06:04:59;;;;;;;5.73;3.50;;;13.50;62.80;;;;;;5074135;28;20282;-62
2021/04/14 06:07:25;;;;;;;8.87;3.50;;;14.30;60.20;;;;;;5074144;28;20229;-63
2021/04/14 06:09:51;;;;;;;6.20;3.57;;;15.20;57.90;;;;;;5073723;28;20703;-62
2021/04/14 06:12:18;;;;;;;7.20;4.73;;;15.90;55.50;;;;;;5073467;28;20266;-63
2021/04/14 06:14:45;;;;;;;8.10;5.63;;;16.70;54.20;;;;;;5073360;28;20467;-63
2021/04/14 06:17:11;;;;;;;8.23;4.03;;;17.60;52.50;;;;;;5073371;28;20240;-63
2021/04/14 06:19:38;;;;;;;8.67;3.60;;;18.50;49.80;;;;;;5073979;28;20553;-63
2021/04/14 06:22:04;;;;;;;10.83;5.47;;;19.20;47.50;;;;;;5073657;28;20205;-63
2021/04/14 06:24:30;;;;;;;9.00;3.90;;;19.90;45.90;;;;;;5073122;28;20224;-63
2021/04/14 06:27:00;;;;;;;19.58;3.67;;;20.50;44.90;;;;;;5073348;28;20228;-62
2021/04/14 06:29:26;;;;;;;24.02;4.65;;;21.00;43.20;;;;;;5072931;28;20474;-62
2021/04/14 06:31:53;;;;;;;22.70;3.45;;;21.40;42.60;;;;;;5073283;28;20213;-63
2021/04/14 06:34:23;;;;;;;16.00;4.03;;;21.70;41.60;;;;;;5073773;28;20204;-62
2021/04/14 06:36:50;;;;;;;6.97;4.07;;;21.80;41.20;;;;;;5073967;28;20228;-62
2021/04/14 06:39:18;;;;;;;7.05;4.28;;;21.10;40.80;;;;;;5074278;28;20200;-64
2021/04/14 06:42:06;;;;;;;6.97;3.90;;;21.00;41.50;;;;;;5072075;28;20578;-63
2021/04/14 06:44:57;;;;;;;6.30;4.55;;;21.20;40.80;;;;;;5072616;28;20248;-62
2021/04/14 06:47:33;;;;;;;5.18;3.80;;;20.40;41.80;;;;;;5072469;28;20228;-62
2021/04/14 06:50:06;;;;;;;5.93;3.80;;;20.00;41.30;;;;;;5072665;28;20337;-63
2021/04/14 06:52:36;;;;;;;7.60;4.32;;;19.80;42.20;;;;;;5072385;28;20574;-63
2021/04/14 06:55:07;;;;;;;7.38;4.43;;;20.00;42.40;;;;;;5071934;28;20205;-63
2021/04/14 06:57:37;;;;;;;6.82;4.70;;;20.60;42.30;;;;;;5072278;28;20642;-63
2021/04/14 07:00:08;;;;;;;7.15;3.85;;;21.00;41.40;;;;;;5072116;28;20693;-62
2021/04/14 07:02:41;;;;;;;6.40;4.05;;;20.90;41.00;;;;;;5072141;28;20217;-63
2021/04/14 07:05:11;;;;;;;5.88;3.97;;;20.60;42.00;;;;;;5072050;28;20208;-63
2021/04/14 07:07:40;;;;;;;8.25;4.00;;;20.90;41.60;;;;;;5071671;28;20229;-63
2021/04/14 07:10:12;;;;;;;6.72;4.13;;;21.20;40.70;;;;;;5072051;28;20201;-66
2021/04/14 07:12:38;;;;;;;7.05;4.05;;;21.30;40.10;;;;;;5072018;28;20673;-65
2021/04/14 07:15:06;;;;;;;8.73;4.30;;;21.00;40.90;;;;;;5071737;28;20208;-64
2021/04/14 07:17:49;;;;;;;6.70;4.00;;;21.40;40.90;;;;;;5071813;28;20705;-64
2021/04/14 07:20:36;;;;;;;6.75;4.28;;;22.10;40.50;;;;;;5072309;28;20251;-67
2021/04/14 07:23:18;;;;;;;6.38;4.35;;;23.00;39.50;;;;;;5072099;28;20216;-64
2021/04/14 07:25:51;;;;;;;9.50;4.40;;;23.90;38.90;;;;;;5071505;28;20225;-63
2021/04/14 07:28:31;;;;;;;10.20;5.80;;;24.60;37.40;;;;;;5071953;28;20213;-63
2021/04/14 07:31:03;;;;;;;9.52;5.47;;;24.20;37.10;;;;;;5072210;28;20208;-63
2021/04/14 07:33:44;;;;;;;9.55;5.78;;;23.20;37.30;;;;;;5071658;28;20684;-64
2021/04/14 07:36:17;;;;;;;10.10;6.82;;;22.40;39.00;;;;;;5071777;28;20228;-63
2021/04/14 07:38:50;;;;;;;9.40;5.07;;;22.70;39.30;;;;;;5071989;28;20291;-64
2021/04/14 07:41:26;;;;;;;10.23;5.53;;;23.60;37.40;;;;;;5071753;28;20205;-63
2021/04/14 07:44:00;;;;;;;11.38;5.50;;;23.50;37.40;;;;;;5071927;28;20209;-64
2021/04/14 07:46:27;;;;;;;7.35;4.70;;;22.60;38.30;;;;;;5071714;28;20220;-64
2021/04/14 07:48:58;;;;;;;9.88;5.35;;;21.70;38.90;;;;;;5071527;28;20234;-65
2021/04/14 07:51:27;;;;;;;7.10;3.90;;;21.30;40.30;;;;;;5071414;28;20201;-62
2021/04/14 07:54:00;;;;;;;10.23;4.80;;;21.80;38.50;;;;;;5071199;28;20204;-63
2021/04/14 07:56:27;;;;;;;8.63;4.13;;;22.50;38.60;;;;;;5071397;28;20228;-63
2021/04/14 07:59:07;;;;;;;6.93;4.38;;;23.00;38.40;;;;;;5071199;28;20259;-64
2021/04/14 08:01:35;;;;;;;9.05;4.00;;;23.60;37.40;;;;;;5073294;28;20649;-66
2021/04/14 08:04:17;;;;;;;4.15;3.20;;;24.10;36.80;;;;;;5071588;28;20219;-65
2021/04/14 08:06:44;;;;;;;5.13;3.25;;;24.40;36.80;;;;;;5071228;28;20419;-64
2021/04/14 08:09:13;;;;;;;4.28;3.20;;;24.60;36.10;;;;;;5071088;28;20205;-65
2021/04/14 08:11:40;;;;;;;6.10;3.10;;;24.80;36.10;;;;;;5070936;28;20668;-65
2021/04/14 08:14:12;;;;;;;5.85;3.15;;;24.30;36.00;;;;;;5071367;28;20299;-64
2021/04/14 08:16:43;;;;;;;3.95;3.20;;;23.00;37.20;;;;;;5072511;28;20602;-64
2021/04/14 08:19:20;;;;;;;5.55;3.10;;;21.40;38.90;;;;;;5071337;28;20656;-64
2021/04/14 08:21:54;;;;;;;5.57;3.13;;;19.40;41.20;;;;;;5071121;28;20256;-64
2021/04/14 08:24:28;;;;;;;5.97;2.70;;;17.00;44.70;;;;;;5071111;28;20615;-64
2021/04/14 08:26:56;;;;;;;6.20;2.73;;;15.40;47.30;;;;;;5071782;28;20247;-64
2021/04/14 08:29:22;;;;;;;3.73;2.40;;;14.20;49.00;;;;;;5071055;28;20209;-64
2021/04/14 08:31:50;;;;;;;3.90;2.60;;;13.20;51.20;;;;;;5071156;28;20259;-64
2021/04/14 08:34:25;;;;;;;4.87;3.00;;;12.30;52.70;;;;;;5070867;28;20255;-63
2021/04/14 08:36:56;;;;;;;6.23;2.80;;;12.00;54.10;;;;;;5071025;28;20620;-64
2021/04/14 08:39:28;;;;;;;3.60;2.57;;;11.90;54.70;;;;;;5071071;28;20289;-64
2021/04/14 08:42:10;;;;;;;5.67;2.77;;;11.90;55.20;;;;;;5071270;28;20583;-63
2021/04/14 08:44:39;;;;;;;5.00;2.80;;;12.10;55.20;;;;;;5070907;28;20269;-65
2021/04/14 08:47:15;;;;;;;4.27;2.53;;;12.30;55.50;;;;;;5072583;28;20255;-65
2021/04/14 08:49:45;;;;;;;4.27;2.60;;;12.60;55.50;;;;;;5071275;28;20204;-64
2021/04/14 08:52:18;;;;;;;6.33;2.53;;;13.00;54.00;;;;;;5070550;28;20219;-64
2021/04/14 08:54:45;;;;;;;5.35;2.58;;;13.20;53.60;;;;;;5074697;28;20438;-63
2021/04/14 08:57:12;;;;;;;3.97;2.60;;;13.10;54.20;;;;;;5085620;28;20240;-62
2021/04/14 08:59:39;;;;;;;3.67;1.90;;;13.00;54.30;;;;;;5073074;28;20205;-63
2021/04/14 09:02:07;;;;;;;4.40;2.40;;;12.80;54.20;;;;;;5072192;28;20215;-62
2021/04/14 09:04:36;;;;;;;2.67;2.20;;;12.60;54.10;;;;;;5075351;28;20211;-62
2021/04/14 09:07:05;;;;;;;4.27;2.40;;;12.10;54.60;;;;;;5078713;28;20275;-60
2021/04/14 09:09:45;;;;;;;7.57;2.37;;;11.70;55.50;;;;;;5075928;28;20230;-59
2021/04/14 09:12:12;;;;;;;6.93;2.30;;;11.60;55.40;;;;;;5078407;28;20209;-62
2021/04/14 09:14:39;;;;;;;3.70;2.20;;;11.40;55.40;;;;;;5080116;28;20694;-61
2021/04/14 09:17:16;;;;;;;5.33;1.80;;;11.50;54.30;;;;;;5079182;28;20228;-61
2021/04/14 09:19:44;;;;;;;2.93;1.97;;;11.80;54.10;;;;;;5071914;28;20209;-60
2021/04/14 09:22:23;;;;;;;4.63;1.80;;;12.00;53.00;;;;;;5058582;28;20254;-63
2021/04/14 09:24:51;;;;;;;4.87;2.10;;;12.40;52.10;;;;;;5055899;28;20300;-61
2021/04/14 09:27:27;;;;;;;3.43;2.00;;;12.90;51.10;;;;;;5055527;28;20568;-62
2021/04/14 09:30:12;;;;;;;4.77;2.13;;;13.40;51.00;;;;;;5054477;28;20580;-60
2021/04/14 09:32:51;;;;;;;3.00;2.00;;;13.80;50.30;;;;;;5058275;28;20335;-62
2021/04/14 09:35:23;;;;;;;5.30;1.80;;;14.00;47.80;;;;;;5060528;28;20201;-62
2021/04/14 09:37:54;;;;;;;4.73;1.83;;;14.00;47.20;;;;;;5062966;28;20262;-60
2021/04/14 09:40:30;;;;;;;3.23;1.93;;;13.60;48.80;;;;;;5056678;28;20297;-60
2021/04/14 09:42:57;;;;;;;5.47;2.40;;;13.40;49.80;;;;;;5054135;28;20653;-63
2021/04/14 09:45:37;;;;;;;5.37;2.07;;;12.80;52.50;;;;;;5052393;28;20209;-60
2021/04/14 09:48:16;;;;;;;5.63;2.63;;;12.20;54.30;;;;;;5053745;28;20561;-60
2021/04/14 09:50:45;;;;;;;4.53;2.40;;;11.60;57.20;;;;;;5053214;28;20209;-61
2021/04/14 09:53:28;;;;;;;4.83;1.97;;;11.00;57.40;;;;;;5053760;28;20579;-62
2021/04/14 09:55:58;;;;;;;1.97;1.50;;;10.30;59.40;;;;;;5053772;28;20312;-61
2021/04/14 09:58:32;;;;;;;1.83;1.43;;;9.40;61.00;;;;;;5053971;28;20220;-62
2021/04/14 10:01:11;;;;;;;3.53;1.53;;;8.70;64.40;;;;;;5053655;28;20209;-62
2021/04/14 10:03:42;;;;;;;1.40;1.30;;;8.10;70.40;;;;;;5053682;28;20206;-61
2021/04/14 10:06:10;;;;;;;2.60;2.03;;;7.40;77.20;;;;;;5052480;28;20264;-60
2021/04/14 10:08:40;;;;;;;2.17;1.97;;;6.70;85.60;;;;;;5053244;28;20634;-61
2021/04/14 10:11:06;;;;;;;3.57;2.20;;;6.20;90.20;;;;;;5053520;28;20259;-60
2021/04/14 10:13:33;;;;;;;2.00;1.73;;;5.70;92.80;;;;;;5053144;28;20202;-61
2021/04/14 10:16:01;;;;;;;3.73;2.50;;;5.60;94.70;;;;;;5052846;28;20261;-61
2021/04/14 10:18:30;;;;;;;5.13;2.83;;;5.70;95.50;;;;;;5052725;28;20206;-60
2021/04/14 10:21:12;;;;;;;3.13;2.50;;;6.00;97.40;;;;;;5053255;28;20209;-63
2021/04/14 10:23:40;;;;;;;8.03;2.43;;;6.50;98.70;;;;;;5053114;28;20678;-63
2021/04/14 10:26:09;;;;;;;2.67;2.30;;;7.10;97.80;;;;;;5052853;28;20229;-62
2021/04/14 10:28:40;;;;;;;6.10;2.83;;;7.80;97.20;;;;;;5053220;28;20205;-62
2021/04/14 10:31:10;;;;;;;7.53;4.00;;;8.40;96.60;;;;;;5052766;28;20256;-61
2021/04/14 10:33:38;;;;;;;3.27;2.17;;;9.00;95.40;;;;;;5052785;28;20247;-61
2021/04/14 10:36:15;;;;;;;6.10;2.33;;;9.50;87.70;;;;;;5052738;28;20229;-60
2021/04/14 10:38:43;;;;;;;4.00;2.20;;;9.80;84.30;;;;;;5052562;28;20206;-60
2021/04/14 10:41:15;;;;;;;4.33;1.90;;;10.20;78.00;;;;;;5052418;28;20217;-61
2021/04/14 10:43:41;;;;;;;2.30;1.70;;;10.40;75.30;;;;;;5052311;28;20244;-62
2021/04/14 10:46:13;;;;;;;4.17;2.07;;;10.30;69.10;;;;;;5052489;28;20591;-62
2021/04/14 10:48:42;;;;;;;3.10;1.80;;;10.50;71.20;;;;;;5052677;28;20216;-62
2021/04/14 10:51:12;;;;;;;4.43;2.00;;;10.80;68.70;;;;;;5052281;28;20217;-60
2021/04/14 10:53:41;;;;;;;4.53;1.90;;;11.10;67.00;;;;;;5052264;28;20220;-61
2021/04/14 10:56:16;;;;;;;4.17;1.93;;;11.40;66.50;;;;;;5051585;28;20240;-62
2021/04/14 10:58:43;;;;;;;3.60;2.10;;;11.40;64.00;;;;;;5052362;28;20592;-60
2021/04/14 11:01:13;;;;;;;4.10;2.07;;;11.40;63.40;;;;;;5052390;28;20252;-61
2021/04/14 11:03:45;;;;;;;10.93;6.20;;;11.60;64.00;;;;;;5052310;28;20205;-62
2021/04/14 11:06:14;;;;;;;3.10;2.13;;;12.00;65.80;;;;;;5051955;28;20225;-63
2021/04/14 11:08:43;;;;;;;2.53;1.73;;;12.40;67.10;;;;;;5051874;28;20210;-62
2021/04/14 11:11:10;;;;;;;4.67;2.10;;;12.80;59.80;;;;;;5052147;28;20201;-59
2021/04/14 11:13:41;;;;;;;4.53;2.43;;;12.90;59.40;;;;;;5051732;28;20205;-61
2021/04/14 11:16:10;;;;;;;1.77;1.47;;;13.00;61.90;;;;;;5052177;28;20253;-63
2021/04/14 11:18:39;;;;;;;14.93;3.33;;;13.40;58.80;;;;;;5052595;28;20212;-60
2021/04/14 11:21:20;;;;;;;3.63;2.00;;;13.70;57.60;;;;;;5052338;28;20209;-61
2021/04/14 11:23:47;;;;;;;3.40;1.87;;;13.80;56.20;;;;;;5051929;28;20300;-61
2021/04/14 11:26:15;;;;;;;3.73;2.10;;;13.80;55.90;;;;;;5052810;28;20230;-62
2021/04/14 11:28:44;;;;;;;7.27;2.00;;;13.70;55.70;;;;;;5051041;28;20213;-61
2021/04/14 11:31:11;;;;;;;4.43;2.10;;;13.80;55.50;;;;;;5051539;28;20692;-60
2021/04/14 11:33:40;;;;;;;5.67;2.30;;;14.10;55.60;;;;;;5051299;28;20217;-61
2021/04/14 11:36:18;;;;;;;2.93;1.73;;;14.60;57.20;;;;;;5051675;28;20237;-60
2021/04/14 11:38:55;;;;;;;5.90;2.23;;;14.90;54.70;;;;;;5051535;28;20216;-61
2021/04/14 11:41:28;;;;;;;3.37;1.70;;;15.20;53.10;;;;;;5051478;28;20212;-61
2021/04/14 11:43:54;;;;;;;3.53;2.17;;;15.30;53.00;;;;;;5050916;28;20205;-61
2021/04/14 11:46:32;;;;;;;4.23;1.70;;;15.30;50.70;;;;;;5051378;28;20225;-61
2021/04/14 11:49:00;;;;;;;2.47;1.63;;;15.30;51.20;;;;;;5051099;28;20212;-64
2021/04/14 11:51:39;;;;;;;4.20;1.70;;;15.20;50.50;;;;;;5051293;28;20212;-62
2021/04/14 11:54:08;;;;;;;3.73;1.60;;;15.20;50.90;;;;;;5050906;28;20217;-61
2021/04/14 11:56:41;;;;;;;3.43;1.53;;;14.90;51.00;;;;;;5050821;28;20233;-62
2021/04/14 11:59:22;;;;;;;3.87;1.80;;;14.70;52.60;;;;;;5051109;28;20214;-62
2021/04/14 12:01:53;;;;;;;4.70;1.70;;;15.10;51.40;;;;;;5070375;28;20209;-62
2021/04/14 12:04:20;;;;;;;2.73;1.50;;;15.50;48.30;;;;;;5070599;28;20246;-62
2021/04/14 12:06:46;;;;;;;1.77;1.50;;;15.60;47.80;;;;;;5070622;28;20238;-62
2021/04/14 12:09:12;;;;;;;3.13;1.70;;;15.40;48.50;;;;;;5071007;28;20293;-63
2021/04/14 12:11:39;;;;;;;6.40;2.10;;;15.10;47.70;;;;;;5071084;28;20212;-60
2021/04/14 12:14:06;;;;;;;6.50;2.77;;;14.90;47.30;;;;;;5070775;28;20633;-62
2021/04/14 12:16:34;;;;;;;4.03;1.73;;;14.80;48.40;;;;;;5070854;28;20233;-62
2021/04/14 12:19:00;;;;;;;2.10;1.47;;;14.90;49.70;;;;;;5070639;28;20211;-63
2021/04/14 12:21:27;;;;;;;4.00;1.90;;;15.20;48.40;;;;;;5070615;28;20677;-63
2021/04/14 12:23:54;;;;;;;5.40;1.93;;;15.10;48.60;;;;;;5070752;28;20205;-62
2021/04/14 12:26:20;;;;;;;5.90;2.50;;;15.00;49.20;;;;;;5070401;28;20283;-63
2021/04/14 12:28:47;;;;;;;3.23;1.73;;;14.90;48.60;;;;;;5070386;28;20205;-63
2021/04/14 12:31:13;;;;;;;4.90;2.20;;;14.50;48.20;;;;;;5070758;28;20208;-62
2021/04/14 12:33:39;;;;;;;3.63;2.10;;;14.10;50.30;;;;;;5070739;28;20311;-62
2021/04/14 12:36:06;;;;;;;5.23;1.60;;;13.70;51.40;;;;;;5070277;28;20286;-62
2021/04/14 12:38:32;;;;;;;5.03;1.60;;;13.30;52.20;;;;;;5071566;28;20669;-63
2021/04/14 12:41:00;;;;;;;2.57;1.70;;;12.90;53.70;;;;;;5074761;28;20664;-62
2021/04/14 12:43:26;;;;;;;6.00;2.00;;;12.60;55.00;;;;;;5074348;28;20661;-63
2021/04/14 12:45:53;;;;;;;2.43;1.73;;;12.30;57.00;;;;;;5074807;28;20228;-63
2021/04/14 12:48:21;;;;;;;3.47;1.83;;;12.20;56.90;;;;;;5074846;28;20665;-63
2021/04/14 12:51:04;;;;;;;2.17;1.67;;;11.90;56.20;;;;;;5074928;28;20209;-64
2021/04/14 12:53:31;;;;;;;2.93;1.73;;;11.70;56.10;;;;;;5074530;28;20523;-63
2021/04/14 12:55:59;;;;;;;4.17;1.53;;;11.20;55.80;;;;;;5074588;28;20232;-64
2021/04/14 12:58:30;;;;;;;3.67;1.93;;;10.60;57.70;;;;;;5074415;28;20212;-64
2021/04/14 13:00:57;;;;;;;2.63;1.73;;;10.30;60.70;;;;;;5074440;28;20287;-62